createdAt,value
2018-09-18T00:00:24.999Z,98117.14
2018-09-18T00:02:54.450Z,98113.38
2018-09-18T00:05:23.814Z,98115.75
2018-09-18T00:07:53.275Z,98115.95
2018-09-18T00:10:22.620Z,98108.00
2018-09-18T00:12:52.043Z,98116.54
2018-09-18T00:15:21.430Z,98109.41
2018-09-18T00:17:50.852Z,98114.25
2018-09-18T00:20:20.225Z,98119.96
2018-09-18T00:22:49.616Z,98118.36
2018-09-18T00:25:19.054Z,98113.97
2018-09-18T00:27:48.422Z,98119.45
2018-09-18T00:30:17.827Z,98116.97
2018-09-18T00:32:47.206Z,98115.80
2018-09-18T00:35:16.653Z,98118.84
2018-09-18T00:37:46.017Z,98118.98
2018-09-18T00:40:15.446Z,98113.95
2018-09-18T00:42:44.823Z,98116.59
2018-09-18T00:45:15.203Z,98114.90
2018-09-18T00:47:44.570Z,98108.14
2018-09-18T00:50:13.982Z,98111.13
2018-09-18T00:52:43.371Z,98109.25
2018-09-18T00:55:12.738Z,98106.94
2018-09-18T00:57:42.112Z,98107.14
2018-09-18T01:00:11.493Z,98106.86
2018-09-18T01:02:40.875Z,98112.11
2018-09-18T01:05:10.307Z,98121.12
2018-09-18T01:07:39.738Z,98113.08
2018-09-18T01:10:09.201Z,98115.09
2018-09-18T01:12:38.578Z,98112.59
2018-09-18T01:15:08.017Z,98121.95
2018-09-18T01:17:37.390Z,98113.88
2018-09-18T01:20:06.831Z,98106.33
2018-09-18T01:22:36.204Z,98106.28
2018-09-18T01:25:05.576Z,98108.48
2018-09-18T01:27:35.039Z,98105.10
2018-09-18T01:30:04.418Z,98107.75
2018-09-18T01:32:33.837Z,98106.91
2018-09-18T01:35:03.226Z,98096.19
2018-09-18T01:37:32.638Z,98102.56
2018-09-18T01:40:02.015Z,98097.06
2018-09-18T01:42:31.501Z,98098.06
2018-09-18T01:45:00.834Z,98098.20
2018-09-18T01:47:30.197Z,98100.05
2018-09-18T01:49:59.566Z,98096.27
2018-09-18T01:52:28.981Z,98094.95
2018-09-18T01:54:58.602Z,98097.50
2018-09-18T01:57:27.971Z,98097.06
2018-09-18T01:59:57.375Z,98096.19
2018-09-18T02:02:26.746Z,98100.53
2018-09-18T02:04:56.185Z,98100.22
2018-09-18T02:07:25.553Z,98096.36
2018-09-18T02:09:55.001Z,98090.92
2018-09-18T02:12:24.366Z,98097.75
2018-09-18T02:14:53.775Z,98094.77
2018-09-18T02:17:23.143Z,98097.75
2018-09-18T02:19:52.614Z,98095.61
2018-09-18T02:22:21.975Z,98100.73
2018-09-18T02:24:51.343Z,98101.53
2018-09-18T02:27:20.810Z,98098.11
2018-09-18T02:29:50.209Z,98097.27
2018-09-18T02:32:19.585Z,98098.50
2018-09-18T02:34:48.940Z,98095.05
2018-09-18T02:37:18.408Z,98093.25
2018-09-18T02:39:47.772Z,98093.72
2018-09-18T02:42:17.228Z,98098.81
2018-09-18T02:44:46.587Z,98097.55
2018-09-18T02:47:15.961Z,98100.12
2018-09-18T02:49:45.333Z,98100.70
2018-09-18T02:52:14.733Z,98100.81
2018-09-18T02:54:44.102Z,98096.64
2018-09-18T02:57:13.547Z,98102.28
2018-09-18T02:59:42.948Z,98101.45
2018-09-18T03:02:12.302Z,98090.80
2018-09-18T03:04:41.737Z,98092.48
2018-09-18T03:07:11.102Z,98099.41
2018-09-18T03:09:40.534Z,98100.86
2018-09-18T03:12:09.919Z,98107.25
2018-09-18T03:14:39.355Z,98108.88
2018-09-18T03:17:08.730Z,98109.72
2018-09-18T03:19:38.131Z,98104.23
2018-09-18T03:22:07.507Z,98102.63
2018-09-18T03:24:36.866Z,98109.78
2018-09-18T03:27:06.402Z,98106.34
2018-09-18T03:29:35.734Z,98097.05
2018-09-18T03:32:05.145Z,98097.92
2018-09-18T03:34:34.513Z,98097.05
2018-09-18T03:37:03.958Z,98094.17
2018-09-18T03:39:33.326Z,98099.07
2018-09-18T03:42:02.920Z,98091.91
2018-09-18T03:44:32.286Z,98093.18
2018-09-18T03:47:01.677Z,98095.20
2018-09-18T03:49:31.044Z,98090.95
2018-09-18T03:52:00.477Z,98085.84
2018-09-18T03:54:29.843Z,98083.34
2018-09-18T03:56:59.300Z,98081.59
2018-09-18T03:59:28.663Z,98079.06
2018-09-18T04:01:58.095Z,98079.53
2018-09-18T04:04:27.485Z,98082.90
2018-09-18T04:06:56.904Z,98089.69
2018-09-18T04:09:26.271Z,98085.16
2018-09-18T04:11:55.695Z,98090.20
2018-09-18T04:14:25.068Z,98079.03
2018-09-18T04:16:54.523Z,98086.92
2018-09-18T04:19:23.893Z,98083.11
2018-09-18T04:21:53.302Z,98084.41
2018-09-18T04:24:22.693Z,98083.70
2018-09-18T04:26:52.138Z,98091.48
2018-09-18T04:29:21.511Z,98085.10
2018-09-18T04:31:50.907Z,98088.53
2018-09-18T04:34:20.270Z,98092.86
2018-09-18T04:36:49.736Z,98092.42
2018-09-18T04:39:19.105Z,98092.40
2018-09-18T04:41:48.525Z,98095.45
2018-09-18T04:44:17.893Z,98092.02
2018-09-18T04:46:47.318Z,98089.91
2018-09-18T04:49:16.695Z,98094.96
2018-09-18T04:51:46.057Z,98099.61
2018-09-18T04:54:15.417Z,98098.77
2018-09-18T04:56:44.835Z,98097.04
2018-09-18T04:59:14.207Z,98095.77
2018-09-18T05:01:43.640Z,98102.12
2018-09-18T05:04:13.018Z,98093.72
2018-09-18T05:06:42.441Z,98103.44
2018-09-18T05:09:12.237Z,98103.45
2018-09-18T05:11:41.679Z,98105.17
2018-09-18T05:14:11.076Z,98103.89
2018-09-18T05:16:40.434Z,98104.73
2018-09-18T05:19:09.877Z,98105.14
2018-09-18T05:21:39.247Z,98104.23
2018-09-18T05:24:08.645Z,98104.61
2018-09-18T05:26:38.010Z,98102.13
2018-09-18T05:29:07.389Z,98096.18
2018-09-18T05:31:36.798Z,98100.42
2018-09-18T05:34:06.158Z,98106.79
2018-09-18T05:36:35.602Z,98114.08
2018-09-18T05:39:07.237Z,98117.86
2018-09-18T05:41:36.652Z,98115.28
2018-09-18T05:44:06.289Z,98117.70
2018-09-18T05:46:36.310Z,98116.88
2018-09-18T05:49:05.923Z,98115.89
2018-09-18T05:51:35.626Z,98112.05
2018-09-18T05:54:05.022Z,98112.42
2018-09-18T05:56:34.522Z,98121.62
2018-09-18T05:59:03.919Z,98121.48
2018-09-18T06:01:33.408Z,98122.98
2018-09-18T06:04:02.773Z,98123.78
2018-09-18T06:06:32.458Z,98126.25
2018-09-18T06:09:01.813Z,98125.73
2018-09-18T06:11:31.221Z,98128.15
2018-09-18T06:14:00.581Z,98123.73
2018-09-18T06:16:29.953Z,98121.48
2018-09-18T06:18:59.350Z,98124.73
2018-09-18T06:21:28.707Z,98126.04
2018-09-18T06:23:58.053Z,98127.62
2018-09-18T06:26:27.536Z,98128.41
2018-09-18T06:28:57.177Z,98124.59
2018-09-18T06:31:26.641Z,98123.60
2018-09-18T06:33:56.002Z,98127.27
2018-09-18T06:36:25.437Z,98128.05
2018-09-18T06:38:54.802Z,98119.33
2018-09-18T06:41:24.255Z,98122.16
2018-09-18T06:43:53.639Z,98125.87
2018-09-18T06:46:23.071Z,98123.27
2018-09-18T06:48:52.442Z,98125.53
2018-09-18T06:51:21.847Z,98115.97
2018-09-18T06:53:51.226Z,98119.52
2018-09-18T06:56:20.677Z,98124.95
2018-09-18T06:58:50.070Z,98126.27
2018-09-18T07:01:19.558Z,98126.10
2018-09-18T07:03:49.071Z,98128.66
2018-09-18T07:06:18.459Z,98121.62
2018-09-18T07:08:47.854Z,98124.44
2018-09-18T07:11:17.274Z,98124.55
2018-09-18T07:13:46.897Z,98127.58
2018-09-18T07:16:16.282Z,98126.27
2018-09-18T07:18:45.666Z,98134.21
2018-09-18T07:21:15.085Z,98135.48
2018-09-18T07:23:44.450Z,98137.83
2018-09-18T07:26:13.894Z,98137.98
2018-09-18T07:28:43.286Z,98137.84
2018-09-18T07:31:12.698Z,98138.51
2018-09-18T07:33:42.102Z,98145.38
2018-09-18T07:36:11.514Z,98145.55
2018-09-18T07:38:40.903Z,98147.90
2018-09-18T07:41:10.426Z,98152.66
2018-09-18T07:43:39.678Z,98155.95
2018-09-18T07:46:09.109Z,98153.47
2018-09-18T07:48:39.178Z,98157.84
2018-09-18T07:51:10.094Z,98149.62
2018-09-18T07:53:39.483Z,98155.84
2018-09-18T07:56:08.867Z,98155.33
2018-09-18T07:58:38.221Z,98147.00
2018-09-18T08:01:07.692Z,98141.61
2018-09-18T08:03:37.066Z,98143.95
2018-09-18T08:06:06.514Z,98144.40
2018-09-18T08:08:35.866Z,98143.34
2018-09-18T08:11:05.284Z,98142.58
2018-09-18T08:13:34.642Z,98146.20
2018-09-18T08:16:04.128Z,98145.44
2018-09-18T08:18:33.646Z,98143.85
2018-09-18T08:21:03.121Z,98146.20
2018-09-18T08:23:32.545Z,98145.47
2018-09-18T08:26:01.919Z,98147.31
2018-09-18T08:28:31.293Z,98146.72
2018-09-18T08:31:00.741Z,98146.58
2018-09-18T08:33:30.159Z,98145.07
2018-09-18T08:35:59.629Z,98141.33
2018-09-18T08:38:28.990Z,98145.18
2018-09-18T08:40:58.472Z,98140.05
2018-09-18T08:43:27.834Z,98141.26
2018-09-18T08:45:57.240Z,98137.86
2018-09-18T08:48:29.146Z,98142.19
2018-09-18T08:50:59.666Z,98137.14
2018-09-18T08:53:29.565Z,98135.23
2018-09-18T08:55:58.954Z,98134.52
2018-09-18T08:58:28.306Z,98134.86
2018-09-18T09:00:57.759Z,98134.98
2018-09-18T09:03:27.174Z,98134.05
2018-09-18T09:05:56.634Z,98136.31
2018-09-18T09:08:25.944Z,98130.84
2018-09-18T09:10:55.456Z,98137.72
2018-09-18T09:13:24.758Z,98133.70
2018-09-18T09:15:54.182Z,98129.75
2018-09-18T09:18:23.681Z,98127.99
2018-09-18T09:20:53.959Z,98132.86
2018-09-18T09:23:23.293Z,98132.06
2018-09-18T09:25:52.712Z,98126.61
2018-09-18T09:28:22.235Z,98122.88
2018-09-18T09:30:51.730Z,98124.27
2018-09-18T09:33:21.081Z,98111.88
2018-09-18T09:35:50.507Z,98114.42
2018-09-18T09:38:19.874Z,98112.98
2018-09-18T09:40:49.323Z,98105.23
2018-09-18T09:43:18.699Z,98104.19
2018-09-18T09:45:48.130Z,98101.45
2018-09-18T09:48:17.502Z,98101.35
2018-09-18T09:50:46.929Z,98103.63
2018-09-18T09:53:16.313Z,98099.75
2018-09-18T09:55:45.750Z,98098.19
2018-09-18T09:58:15.127Z,98097.16
2018-09-18T10:00:49.900Z,98091.65
2018-09-18T10:03:19.275Z,98092.64
2018-09-18T10:05:48.643Z,98095.14
2018-09-18T10:08:18.019Z,98089.80
2018-09-18T10:10:47.566Z,98098.30
2018-09-18T10:13:16.820Z,98096.59
2018-09-18T10:15:46.187Z,98094.31
2018-09-18T10:18:15.659Z,98088.92
2018-09-18T10:20:44.947Z,98084.73
2018-09-18T10:23:14.391Z,98085.11
2018-09-18T10:25:43.752Z,98077.47
2018-09-18T10:28:13.193Z,98081.53
2018-09-18T10:30:42.556Z,98080.11
2018-09-18T10:33:12.056Z,98079.45
2018-09-18T10:35:41.382Z,98080.89
2018-09-18T10:38:10.806Z,98085.73
2018-09-18T10:40:40.163Z,98076.36
2018-09-18T10:43:09.619Z,98068.99
2018-09-18T10:45:38.975Z,98066.63
2018-09-18T10:48:08.418Z,98058.16
2018-09-18T10:50:37.927Z,98055.93
2018-09-18T10:53:07.327Z,98055.33
2018-09-18T10:55:36.685Z,98051.27
2018-09-18T10:58:06.738Z,98041.61
2018-09-18T11:00:36.106Z,98040.45
2018-09-18T11:03:05.622Z,98044.54
2018-09-18T11:05:35.111Z,98032.59
2018-09-18T11:08:04.551Z,98039.77
2018-09-18T11:17:29.625Z,98029.74
2018-09-18T11:19:58.990Z,98028.30
2018-09-18T11:22:28.491Z,98024.47
2018-09-18T11:24:57.820Z,98023.95
2018-09-18T11:27:27.212Z,98028.90
2018-09-18T11:29:56.567Z,98024.80
2018-09-18T11:32:26.002Z,98024.00
2018-09-18T11:34:55.370Z,98015.30
2018-09-18T11:37:24.834Z,98015.92
2018-09-18T11:39:54.191Z,98012.79
2018-09-18T11:42:23.594Z,98015.66
2018-09-18T11:44:52.990Z,98016.00
2018-09-18T11:47:22.435Z,98007.89
2018-09-18T11:49:51.786Z,98003.15
2018-09-18T11:52:21.235Z,97994.23
2018-09-18T11:54:50.588Z,97989.63
2018-09-18T11:57:20.064Z,97983.09
2018-09-18T11:59:49.432Z,97997.44
2018-09-18T12:02:18.849Z,97986.94
2018-09-18T12:04:48.430Z,97988.80
2018-09-18T12:07:17.681Z,97986.41
2018-09-18T12:09:47.042Z,97975.76
2018-09-18T12:12:16.458Z,97973.20
2018-09-18T12:14:45.964Z,97972.73
2018-09-18T12:17:15.516Z,97974.37
2018-09-18T12:19:44.862Z,97975.58
2018-09-18T12:22:14.312Z,97970.88
2018-09-18T12:24:43.681Z,97981.08
2018-09-18T12:27:14.144Z,97949.27
2018-09-18T12:29:43.523Z,97966.30
2018-09-18T12:32:12.911Z,97969.52
2018-09-18T12:34:42.273Z,97965.48
2018-09-18T12:37:11.875Z,97960.48
2018-09-18T12:39:41.258Z,97955.64
2018-09-18T12:42:10.819Z,97964.87
2018-09-18T12:44:40.107Z,97952.30
2018-09-18T12:47:09.547Z,97963.03
2018-09-18T12:49:39.044Z,97967.09
2018-09-18T12:52:08.337Z,97950.67
2018-09-18T12:54:37.692Z,97946.05
2018-09-18T12:57:07.192Z,97949.19
2018-09-18T12:59:36.621Z,97946.40
2018-09-18T13:02:05.950Z,97934.78
2018-09-18T13:04:35.311Z,97951.81
2018-09-18T13:07:05.846Z,97938.62
2018-09-18T13:09:35.152Z,97930.11
2018-09-18T13:12:05.624Z,97928.67
2018-09-18T13:14:34.992Z,97929.51
2018-09-18T13:17:04.451Z,97928.04
2018-09-18T13:19:33.816Z,97919.08
2018-09-18T13:22:03.228Z,97922.67
2018-09-18T13:24:32.603Z,97919.70
2018-09-18T13:27:02.020Z,97926.27
2018-09-18T13:29:31.370Z,97920.84
2018-09-18T13:32:00.835Z,97923.82
2018-09-18T13:34:30.220Z,97915.09
2018-09-18T13:36:59.637Z,97904.81
2018-09-18T13:39:28.997Z,97908.77
2018-09-18T13:41:58.423Z,97909.92
2018-09-18T13:44:27.803Z,97917.85
2018-09-18T13:46:57.492Z,97915.27
2018-09-18T13:49:26.867Z,97914.48
2018-09-18T13:51:56.312Z,97909.83
2018-09-18T13:54:25.612Z,97901.19
2018-09-18T13:56:55.035Z,97915.27
2018-09-18T13:59:24.398Z,97908.47
2018-09-18T14:01:53.861Z,97906.33
2018-09-18T14:04:23.279Z,97901.09
2018-09-18T14:06:52.668Z,97898.34
2018-09-18T14:09:22.111Z,97892.50
2018-09-18T14:11:51.466Z,97893.00
2018-09-18T14:14:20.918Z,97894.91
2018-09-18T14:16:50.277Z,97884.52
2018-09-18T14:19:20.847Z,97889.94
2018-09-18T14:21:50.291Z,97889.55
2018-09-18T14:24:19.706Z,97888.84
2018-09-18T14:26:49.098Z,97892.73
2018-09-18T14:29:18.481Z,97901.77
2018-09-18T14:31:47.915Z,97881.72
2018-09-18T14:34:17.298Z,97876.42
2018-09-18T14:36:46.718Z,97883.02
2018-09-18T14:39:16.089Z,97891.88
2018-09-18T14:41:45.527Z,97877.54
2018-09-18T14:44:14.885Z,97883.80
2018-09-18T14:46:44.345Z,97892.66
2018-09-18T14:49:13.711Z,97871.44
2018-09-18T14:51:43.143Z,97882.37
2018-09-18T14:54:12.510Z,97878.02
2018-09-18T14:56:41.943Z,97874.94
2018-09-18T14:59:11.315Z,97867.37
2018-09-18T15:01:40.737Z,97864.36
2018-09-18T15:04:10.120Z,97863.02
2018-09-18T15:06:39.547Z,97861.06
2018-09-18T15:09:10.534Z,97865.98
2018-09-18T15:11:40.242Z,97870.97
2018-09-18T15:14:10.058Z,97867.13
2018-09-18T15:16:39.421Z,97874.64
2018-09-18T15:19:09.490Z,97876.81
2018-09-18T15:21:38.906Z,97881.45
2018-09-18T15:24:08.216Z,97874.63
2018-09-18T15:26:37.782Z,97887.09
2018-09-18T15:29:07.161Z,97886.58
2018-09-18T15:31:36.538Z,97881.45
2018-09-18T15:34:05.975Z,97886.20
2018-09-18T15:36:35.358Z,97888.52
2018-09-18T15:39:06.517Z,97885.31
2018-09-18T15:41:35.900Z,97888.52
2018-09-18T15:44:05.339Z,97886.83
2018-09-18T15:46:35.190Z,97890.37
2018-09-18T15:49:04.554Z,97882.84
2018-09-18T15:51:34.218Z,97886.98
2018-09-18T15:54:03.537Z,97888.67
2018-09-18T15:56:32.922Z,97882.45
2018-09-18T15:59:02.288Z,97891.91
2018-09-18T16:01:31.874Z,97888.69
2018-09-18T16:04:01.396Z,97890.63
2018-09-18T16:06:30.859Z,97888.13
2018-09-18T16:09:00.237Z,97892.56
2018-09-18T16:11:29.658Z,97889.37
2018-09-18T16:13:59.013Z,97879.51
2018-09-18T16:16:28.516Z,97877.88
2018-09-18T16:18:57.876Z,97878.84
2018-09-18T16:21:27.290Z,97884.16
2018-09-18T16:23:56.654Z,97889.00
2018-09-18T16:26:26.095Z,97889.33
2018-09-18T16:28:55.698Z,97890.90
2018-09-18T16:31:25.103Z,97897.30
2018-09-18T16:33:54.472Z,97896.28
2018-09-18T16:36:23.900Z,97904.09
2018-09-18T16:38:53.305Z,97901.84
2018-09-18T16:42:51.835Z,97898.99
2018-09-18T16:45:21.424Z,97894.95
2018-09-18T16:47:50.800Z,97898.23
2018-09-18T16:50:20.186Z,97892.92
2018-09-18T16:52:49.607Z,97894.80
2018-09-18T16:55:18.972Z,97902.10
2018-09-18T16:57:48.403Z,97902.08
2018-09-18T17:00:17.763Z,97901.18
2018-09-18T17:02:47.231Z,97905.18
2018-09-18T17:05:16.602Z,97899.47
2018-09-18T17:07:46.022Z,97902.85
2018-09-18T17:10:15.365Z,97908.73
2018-09-18T17:12:44.851Z,97907.78
2018-09-18T17:15:14.226Z,97919.03
2018-09-18T17:17:43.638Z,97913.80
2018-09-18T17:20:13.004Z,97920.75
2018-09-18T17:22:57.275Z,97915.73
2018-09-18T17:25:26.633Z,97921.97
2018-09-18T17:27:56.102Z,97923.44
2018-09-18T17:30:25.488Z,97918.29
2018-09-18T17:32:54.887Z,97921.58
2018-09-18T17:35:24.349Z,97922.95
2018-09-18T17:37:53.703Z,97930.38
2018-09-18T17:40:23.047Z,97928.66
2018-09-18T17:42:52.488Z,97929.55
2018-09-18T17:45:21.849Z,97936.27
2018-09-18T17:47:51.348Z,97942.23
2018-09-18T17:50:20.872Z,97942.11
2018-09-18T17:52:50.227Z,97946.20
2018-09-18T17:55:19.607Z,97947.73
2018-09-18T17:57:49.037Z,97948.11
2018-09-18T18:00:18.403Z,97946.52
2018-09-18T18:02:47.886Z,97947.59
2018-09-18T18:05:17.248Z,97951.72
2018-09-18T18:07:46.649Z,97957.84
2018-09-18T18:10:16.190Z,97961.22
2018-09-18T18:12:45.642Z,97966.80
2018-09-18T18:15:14.998Z,97969.67
2018-09-18T18:17:44.473Z,97974.06
2018-09-18T18:20:13.839Z,97970.22
2018-09-18T18:22:43.370Z,97980.89
2018-09-18T18:25:12.723Z,97985.91
2018-09-18T18:27:42.173Z,97991.53
2018-09-18T18:30:11.563Z,97987.74
2018-09-18T18:32:40.974Z,97992.25
2018-09-18T18:35:10.339Z,97991.27
2018-09-18T18:37:39.770Z,97995.77
2018-09-18T18:40:09.139Z,97999.22
2018-09-18T18:42:38.562Z,97999.92
2018-09-18T18:45:07.929Z,97994.03
2018-09-18T18:47:37.389Z,97998.84
2018-09-18T18:50:06.679Z,98001.76
2018-09-18T18:52:36.091Z,98012.83
2018-09-18T18:55:05.437Z,98018.36
2018-09-18T18:57:34.876Z,98016.16
2018-09-18T19:00:04.454Z,98016.05
2018-09-18T19:02:33.907Z,98020.56
2018-09-18T19:05:03.354Z,98021.94
2018-09-18T19:07:32.726Z,98027.52
2018-09-18T19:10:02.077Z,98032.20
2018-09-18T19:12:31.507Z,98033.59
2018-09-18T19:15:00.871Z,98039.14
2018-09-18T19:17:30.307Z,98050.53
2018-09-18T19:19:59.681Z,98048.02
2018-09-18T19:22:29.131Z,98048.56
2018-09-18T19:24:58.477Z,98044.13
2018-09-18T19:27:27.844Z,98053.30
2018-09-18T19:29:57.211Z,98045.88
2018-09-18T19:32:26.635Z,98041.63
2018-09-18T19:34:56.021Z,98048.47
2018-09-18T19:37:25.427Z,98041.83
2018-09-18T19:39:54.788Z,98043.01
2018-09-18T19:42:24.228Z,98040.11
2018-09-18T19:44:53.599Z,98038.17
2018-09-18T19:47:23.214Z,98041.59
2018-09-18T19:49:52.568Z,98038.14
2018-09-18T19:52:22.051Z,98036.46
2018-09-18T19:54:51.313Z,98034.16
2018-09-18T19:57:20.751Z,98032.08
2018-09-18T19:59:50.151Z,98042.67
2018-09-18T20:02:19.552Z,98044.54
2018-09-18T20:04:48.982Z,98041.38
2018-09-18T20:07:18.361Z,98046.20
2018-09-18T20:09:47.746Z,98044.79
2018-09-18T20:12:18.022Z,98044.19
2018-09-18T20:14:47.408Z,98042.39
2018-09-18T20:17:16.750Z,98047.67
2018-09-18T20:19:46.206Z,98054.31
2018-09-18T20:22:15.714Z,98051.90
2018-09-18T20:24:45.146Z,98054.80
2018-09-18T20:27:14.660Z,98055.02
2018-09-18T20:29:44.380Z,98052.03
2018-09-18T20:32:13.798Z,98056.80
2018-09-18T20:34:43.567Z,98059.74
2018-09-18T20:37:13.235Z,98055.19
2018-09-18T20:39:42.720Z,98054.73
2018-09-18T20:42:12.299Z,98057.67
2018-09-18T20:44:41.688Z,98060.44
2018-09-18T20:47:11.206Z,98060.36
2018-09-18T20:49:40.658Z,98065.02
2018-09-18T20:52:10.242Z,98065.19
2018-09-18T20:54:39.608Z,98066.84
2018-09-18T20:57:09.116Z,98064.26
2018-09-18T20:59:38.584Z,98069.47
2018-09-18T21:02:08.081Z,98066.77
2018-09-18T21:04:37.488Z,98070.88
2018-09-18T21:07:07.062Z,98075.64
2018-09-18T21:09:36.601Z,98080.48
2018-09-18T21:12:05.959Z,98083.07
2018-09-18T21:14:35.631Z,98083.60
2018-09-18T21:17:05.085Z,98087.14
2018-09-18T21:19:34.545Z,98093.23
2018-09-18T21:22:03.950Z,98089.47
2018-09-18T21:24:33.419Z,98095.06
2018-09-18T21:27:02.859Z,98096.58
2018-09-18T21:29:32.314Z,98099.77
2018-09-18T21:32:01.732Z,98098.27
2018-09-18T21:34:31.256Z,98104.73
2018-09-18T21:37:00.688Z,98094.95
2018-09-18T21:39:30.083Z,98094.50
2018-09-18T21:41:59.454Z,98092.47
2018-09-18T21:44:28.852Z,98095.21
2018-09-18T21:46:58.480Z,98094.22
2018-09-18T21:49:27.889Z,98092.95
2018-09-18T21:51:57.323Z,98096.63
2018-09-18T21:54:26.792Z,98095.55
2018-09-18T21:56:56.193Z,98099.75
2018-09-18T21:59:25.654Z,98102.11
2018-09-18T22:01:55.010Z,98109.16
2018-09-18T22:04:24.403Z,98106.83
2018-09-18T22:06:53.841Z,98109.93
2018-09-18T22:09:23.170Z,98110.77
2018-09-18T22:11:52.610Z,98106.22
2018-09-18T22:14:22.029Z,98110.09
2018-09-18T22:16:51.399Z,98108.86
2018-09-18T22:19:20.811Z,98109.26
2018-09-18T22:21:50.233Z,98112.70
2018-09-18T22:24:19.610Z,98109.48
2018-09-18T22:26:49.166Z,98115.25
2018-09-18T22:29:18.545Z,98111.14
2018-09-18T22:31:48.069Z,98116.69
2018-09-18T22:34:17.437Z,98116.14
2018-09-18T22:36:46.840Z,98114.48
2018-09-18T22:39:16.197Z,98113.87
2018-09-18T22:41:45.644Z,98117.67
2018-09-18T22:44:15.014Z,98115.77
2018-09-18T22:46:44.468Z,98119.04
2018-09-18T22:49:13.822Z,98114.85
2018-09-18T22:51:43.251Z,98119.50
2018-09-18T22:54:12.603Z,98112.28
2018-09-18T22:56:42.040Z,98118.34
2018-09-18T22:59:11.444Z,98118.09
2018-09-18T23:01:40.845Z,98116.13
2018-09-18T23:04:10.186Z,98119.32
2018-09-18T23:06:39.706Z,98122.42
2018-09-18T23:09:09.726Z,98122.05
2018-09-18T23:11:39.219Z,98119.38
2018-09-18T23:14:08.599Z,98125.92
2018-09-18T23:16:37.985Z,98122.73
2018-09-18T23:19:07.367Z,98124.02
2018-09-18T23:21:36.788Z,98123.56
2018-09-18T23:24:06.520Z,98133.35
2018-09-18T23:26:36.154Z,98131.90
2018-09-18T23:29:05.612Z,98131.44
2018-09-18T23:31:35.142Z,98132.95
2018-09-18T23:34:04.675Z,98127.20
2018-09-18T23:36:34.131Z,98127.94
2018-09-18T23:39:04.203Z,98135.05
2018-09-18T23:41:33.645Z,98133.55
2018-09-18T23:44:03.019Z,98131.64
2018-09-18T23:46:32.600Z,98129.20
2018-09-18T23:49:01.979Z,98132.30
2018-09-18T23:51:31.352Z,98137.61
2018-09-18T23:54:00.771Z,98136.16
2018-09-18T23:56:30.182Z,98138.82
2018-09-18T23:58:59.562Z,98139.50
